createdAt,value
2022-10-01T00:00:05.023Z,46.41
2022-10-01T00:02:38.100Z,46.43
2022-10-01T00:05:11.026Z,46.44
2022-10-01T00:07:44.042Z,46.42
2022-10-01T00:10:16.931Z,46.43
2022-10-01T00:12:50.071Z,46.46
2022-10-01T00:15:22.975Z,46.48
2022-10-01T00:17:56.047Z,46.57
2022-10-01T00:20:29.041Z,46.52
2022-10-01T00:23:02.017Z,46.55
2022-10-01T00:25:35.073Z,46.61
2022-10-01T00:28:08.087Z,46.62
2022-10-01T00:30:40.750Z,46.62
2022-10-01T00:33:14.050Z,46.66
2022-10-01T00:35:47.135Z,46.65
2022-10-01T00:38:20.059Z,46.68
2022-10-01T00:40:53.021Z,46.61
2022-10-01T00:43:25.995Z,46.67
2022-10-01T00:45:59.113Z,46.70
2022-10-01T00:48:31.999Z,46.70
2022-10-01T00:51:05.108Z,46.73
2022-10-01T00:53:38.082Z,46.73
2022-10-01T00:56:11.000Z,46.74
2022-10-01T00:58:44.041Z,46.74
2022-10-01T01:01:17.217Z,46.74
2022-10-01T01:03:50.080Z,46.75
2022-10-01T01:06:23.056Z,46.82
2022-10-01T01:08:56.075Z,46.82
2022-10-01T01:11:29.101Z,46.83
2022-10-01T01:14:02.150Z,46.89
2022-10-01T01:16:35.158Z,46.85
2022-10-01T01:19:08.165Z,46.88
2022-10-01T01:21:41.126Z,46.91
2022-10-01T01:24:14.165Z,46.90
2022-10-01T01:26:47.028Z,46.90
2022-10-01T01:29:20.113Z,46.84
2022-10-01T01:31:53.080Z,46.85
2022-10-01T01:34:26.140Z,46.91
2022-10-01T01:36:59.150Z,46.86
2022-10-01T01:39:32.191Z,46.94
2022-10-01T01:42:05.174Z,46.95
2022-10-01T01:44:38.193Z,46.95
2022-10-01T01:47:11.090Z,47.03
2022-10-01T01:49:44.133Z,46.97
2022-10-01T01:52:17.223Z,46.97
2022-10-01T01:54:50.147Z,47.04
2022-10-01T01:57:23.248Z,47.10
2022-10-01T01:59:56.107Z,47.08
2022-10-01T02:02:29.250Z,47.16
2022-10-01T02:05:02.181Z,47.14
2022-10-01T02:07:35.177Z,47.11
2022-10-01T02:10:08.225Z,47.12
2022-10-01T02:12:44.124Z,47.22
2022-10-01T02:15:17.247Z,47.18
2022-10-01T02:17:51.004Z,47.17
2022-10-01T02:20:24.232Z,47.18
2022-10-01T02:22:57.172Z,47.17
2022-10-01T02:25:30.271Z,47.22
2022-10-01T02:28:03.187Z,47.24
2022-10-01T02:30:36.239Z,47.25
2022-10-01T02:33:09.218Z,47.39
2022-10-01T02:35:42.440Z,47.39
2022-10-01T02:38:16.266Z,47.38
2022-10-01T02:40:49.227Z,47.45
2022-10-01T02:43:22.271Z,47.44
2022-10-01T02:45:55.278Z,47.42
2022-10-01T02:48:28.191Z,47.55
2022-10-01T02:51:01.184Z,47.58
2022-10-01T02:53:34.326Z,47.65
2022-10-01T02:56:07.243Z,47.65
2022-10-01T02:58:40.314Z,47.71
2022-10-01T03:01:13.256Z,47.71
2022-10-01T03:03:46.179Z,47.71
2022-10-01T03:06:19.205Z,47.72
2022-10-01T03:08:52.145Z,47.77
2022-10-01T03:11:25.261Z,47.73
2022-10-01T03:13:58.303Z,47.78
2022-10-01T03:16:31.301Z,47.81
2022-10-01T03:19:04.215Z,47.87
2022-10-01T03:21:37.304Z,47.80
2022-10-01T03:24:10.367Z,47.79
2022-10-01T03:26:43.022Z,47.77
2022-10-01T03:29:16.231Z,47.78
2022-10-01T03:31:49.453Z,47.77
2022-10-01T03:34:22.233Z,47.79
2022-10-01T03:36:55.510Z,47.75
2022-10-01T03:39:29.292Z,47.72
2022-10-01T03:42:02.320Z,47.70
2022-10-01T03:44:35.294Z,47.75
2022-10-01T03:47:09.448Z,47.74
2022-10-01T03:49:43.264Z,47.80
2022-10-01T03:52:16.392Z,47.81
2022-10-01T03:54:49.418Z,47.73
2022-10-01T03:57:22.362Z,47.76
2022-10-01T03:59:55.410Z,47.72
2022-10-01T04:02:28.560Z,47.71
2022-10-01T04:05:01.355Z,47.76
2022-10-01T04:07:34.381Z,47.71
2022-10-01T04:10:07.328Z,47.74
2022-10-01T04:12:40.392Z,47.77
2022-10-01T04:15:13.312Z,47.76
2022-10-01T04:17:46.459Z,47.72
2022-10-01T04:20:19.332Z,47.71
2022-10-01T04:22:52.373Z,47.69
2022-10-01T04:25:25.357Z,47.70
2022-10-01T04:27:58.474Z,47.70
2022-10-01T04:30:31.445Z,47.71
2022-10-01T04:33:04.441Z,47.73
2022-10-01T04:35:37.469Z,47.77
2022-10-01T04:38:10.338Z,47.79
2022-10-01T04:40:43.100Z,47.81
2022-10-01T04:43:17.391Z,47.86
2022-10-01T04:45:50.387Z,47.82
2022-10-01T04:48:23.346Z,47.85
2022-10-01T04:50:56.441Z,47.82
2022-10-01T04:53:29.416Z,47.83
2022-10-01T04:56:02.483Z,47.83
2022-10-01T04:58:35.333Z,47.84
2022-10-01T05:01:08.523Z,47.83
2022-10-01T05:03:41.485Z,47.85
2022-10-01T05:06:14.399Z,47.83
2022-10-01T05:08:47.459Z,47.87
2022-10-01T05:11:20.502Z,47.90
2022-10-01T05:13:53.466Z,47.88
2022-10-01T05:16:26.464Z,47.86
2022-10-01T05:18:59.267Z,47.86
2022-10-01T05:21:32.868Z,47.85
2022-10-01T05:24:05.447Z,47.88
2022-10-01T05:26:38.595Z,47.84
2022-10-01T05:29:11.436Z,47.86
2022-10-01T05:31:44.656Z,47.83
2022-10-01T05:34:17.513Z,47.88
2022-10-01T05:36:50.523Z,47.86
2022-10-01T05:39:23.437Z,47.92
2022-10-01T05:41:56.527Z,47.89
2022-10-01T05:44:29.427Z,47.92
2022-10-01T05:47:02.507Z,47.90
2022-10-01T05:49:35.472Z,47.87
2022-10-01T05:52:08.549Z,47.92
2022-10-01T05:54:41.666Z,47.92
2022-10-01T05:57:15.201Z,47.97
2022-10-01T05:59:48.185Z,47.98
2022-10-01T06:02:21.747Z,47.96
2022-10-01T06:04:54.190Z,47.96
2022-10-01T06:07:27.331Z,48.06
2022-10-01T06:10:00.355Z,48.00
2022-10-01T06:12:33.302Z,48.04
2022-10-01T06:15:06.208Z,48.04
2022-10-01T06:17:39.346Z,48.09
2022-10-01T06:20:12.527Z,48.08
2022-10-01T06:22:45.568Z,48.08
2022-10-01T06:25:18.507Z,48.09
2022-10-01T06:27:51.567Z,48.06
2022-10-01T06:30:24.604Z,48.06
2022-10-01T06:32:57.521Z,48.18
2022-10-01T06:35:30.522Z,48.15
2022-10-01T06:38:03.524Z,48.14
2022-10-01T06:40:36.229Z,48.14
2022-10-01T06:43:09.548Z,48.13
2022-10-01T06:45:42.701Z,48.13
2022-10-01T06:48:15.551Z,48.12
2022-10-01T06:50:48.397Z,48.14
2022-10-01T06:53:21.594Z,48.19
2022-10-01T06:55:54.590Z,48.23
2022-10-01T06:58:27.558Z,48.18
2022-10-01T07:01:00.570Z,48.16
2022-10-01T07:03:33.623Z,48.18
2022-10-01T07:06:06.614Z,48.20
2022-10-01T07:08:39.550Z,48.19
2022-10-01T07:11:12.628Z,48.28
2022-10-01T07:13:45.633Z,48.20
2022-10-01T07:16:18.599Z,48.24
2022-10-01T07:18:51.627Z,48.23
2022-10-01T07:21:24.680Z,48.23
2022-10-01T07:23:58.636Z,48.37
2022-10-01T07:26:31.421Z,48.26
2022-10-01T07:29:04.629Z,48.48
2022-10-01T07:31:38.124Z,48.41
2022-10-01T07:34:10.606Z,48.58
2022-10-01T07:36:43.453Z,48.67
2022-10-01T07:39:16.330Z,48.60
2022-10-01T07:41:49.484Z,48.65
2022-10-01T07:44:22.578Z,48.65
2022-10-01T07:46:55.504Z,48.71
2022-10-01T07:49:28.631Z,48.64
2022-10-01T07:52:01.515Z,48.72
2022-10-01T07:54:34.355Z,48.74
2022-10-01T07:57:07.472Z,48.73
2022-10-01T07:59:40.766Z,48.75
2022-10-01T08:02:13.428Z,48.73
2022-10-01T08:04:46.563Z,48.77
2022-10-01T08:07:19.353Z,48.16
2022-10-01T08:09:52.464Z,47.61
2022-10-01T08:12:25.550Z,47.27
2022-10-01T08:14:58.628Z,47.11
2022-10-01T08:17:31.431Z,46.90
2022-10-01T08:20:04.434Z,46.76
2022-10-01T08:22:41.673Z,46.82
2022-10-01T08:25:10.615Z,46.79
2022-10-01T08:27:43.661Z,46.77
2022-10-01T08:30:16.563Z,46.79
2022-10-01T08:32:49.393Z,46.76
2022-10-01T08:35:22.776Z,46.76
2022-10-01T08:37:55.741Z,46.81
2022-10-01T08:40:28.405Z,46.77
2022-10-01T08:43:02.597Z,46.81
2022-10-01T08:45:35.930Z,46.72
2022-10-01T08:48:08.640Z,46.84
2022-10-01T08:50:41.619Z,47.28
2022-10-01T08:53:14.450Z,47.45
2022-10-01T08:55:47.431Z,47.46
2022-10-01T08:58:20.471Z,47.62
2022-10-01T09:00:53.659Z,47.63
2022-10-01T09:03:26.542Z,47.72
2022-10-01T09:05:59.471Z,47.77
2022-10-01T09:08:32.540Z,47.80
2022-10-01T09:11:05.816Z,47.79
2022-10-01T09:13:38.823Z,47.84
2022-10-01T09:16:11.853Z,47.84
2022-10-01T09:18:44.809Z,47.89
2022-10-01T09:21:17.689Z,47.97
2022-10-01T09:23:50.831Z,47.92
2022-10-01T09:26:25.840Z,47.93
2022-10-01T09:28:56.652Z,47.99
2022-10-01T09:31:29.595Z,47.92
2022-10-01T09:34:02.653Z,47.95
2022-10-01T09:36:35.482Z,48.02
2022-10-01T09:39:08.548Z,48.02
2022-10-01T09:41:41.641Z,48.00
2022-10-01T09:44:18.552Z,48.02
2022-10-01T09:46:47.532Z,48.04
2022-10-01T09:49:20.672Z,48.00
2022-10-01T09:51:53.675Z,47.98
2022-10-01T09:54:26.666Z,48.02
2022-10-01T09:56:59.822Z,48.05
2022-10-01T09:59:32.578Z,48.11
2022-10-01T10:02:05.906Z,47.99
2022-10-01T10:04:38.533Z,47.99
2022-10-01T10:07:11.816Z,48.06
2022-10-01T10:09:44.985Z,47.99
2022-10-01T10:12:17.533Z,48.00
2022-10-01T10:14:50.808Z,48.02
2022-10-01T10:17:23.735Z,47.97
2022-10-01T10:19:56.855Z,48.00
2022-10-01T10:22:29.681Z,48.02
2022-10-01T10:25:02.560Z,48.02
2022-10-01T10:27:35.728Z,48.01
2022-10-01T10:30:08.905Z,48.04
2022-10-01T10:32:42.005Z,48.01
2022-10-01T10:35:14.706Z,48.05
2022-10-01T10:37:47.680Z,48.08
2022-10-01T10:40:23.577Z,48.09
2022-10-01T10:42:53.960Z,48.06
2022-10-01T10:45:26.769Z,48.09
2022-10-01T10:47:59.893Z,48.07
2022-10-01T10:50:32.862Z,48.06
2022-10-01T10:53:05.961Z,48.05
2022-10-01T10:55:38.696Z,48.12
2022-10-01T10:58:17.609Z,48.11
2022-10-01T11:00:50.756Z,48.12
2022-10-01T11:03:23.985Z,48.07
2022-10-01T11:05:56.741Z,48.09
2022-10-01T11:08:30.001Z,48.11
2022-10-01T11:11:04.911Z,48.13
2022-10-01T11:13:37.974Z,48.11
2022-10-01T11:16:11.047Z,48.05
2022-10-01T11:18:43.868Z,48.04
2022-10-01T11:21:16.927Z,48.06
2022-10-01T11:23:49.645Z,48.09
2022-10-01T11:26:22.725Z,48.08
2022-10-01T11:28:55.834Z,48.13
2022-10-01T11:31:28.806Z,48.11
2022-10-01T11:34:01.711Z,48.09
2022-10-01T11:36:35.092Z,48.11
2022-10-01T11:39:08.019Z,48.13
2022-10-01T11:41:40.693Z,48.10
2022-10-01T11:44:13.795Z,48.11
2022-10-01T11:46:46.807Z,48.18
2022-10-01T11:49:19.750Z,48.15
2022-10-01T11:51:52.779Z,48.17
2022-10-01T11:54:25.916Z,48.19
2022-10-01T11:56:58.776Z,48.23
2022-10-01T11:59:31.696Z,48.15
2022-10-01T12:02:04.802Z,48.13
2022-10-01T12:04:37.900Z,48.12
2022-10-01T12:07:11.039Z,48.19
2022-10-01T12:09:46.687Z,48.19
2022-10-01T12:12:19.989Z,48.25
2022-10-01T12:14:53.023Z,48.15
2022-10-01T12:17:25.907Z,48.20
2022-10-01T12:19:58.793Z,48.18
2022-10-01T12:22:31.826Z,48.18
2022-10-01T12:25:04.747Z,48.17
2022-10-01T12:27:37.880Z,48.15
2022-10-01T12:30:10.754Z,48.20
2022-10-01T12:32:44.055Z,48.17
2022-10-01T12:35:16.806Z,48.16
2022-10-01T12:37:49.749Z,48.17
2022-10-01T12:40:23.004Z,48.21
2022-10-01T12:42:55.886Z,48.06
2022-10-01T12:45:28.805Z,47.76
2022-10-01T12:48:01.980Z,47.47
2022-10-01T12:50:34.818Z,47.44
2022-10-01T12:53:07.782Z,47.36
2022-10-01T12:55:40.953Z,47.25
2022-10-01T12:58:13.975Z,47.25
2022-10-01T13:00:47.049Z,47.29
2022-10-01T13:03:19.857Z,47.22
2022-10-01T13:05:53.916Z,47.19
2022-10-01T13:08:26.827Z,47.10
2022-10-01T13:10:59.807Z,47.13
2022-10-01T13:13:33.085Z,47.15
2022-10-01T13:16:06.137Z,47.21
2022-10-01T13:18:38.804Z,47.37
2022-10-01T13:21:12.136Z,47.42
2022-10-01T13:23:44.825Z,47.36
2022-10-01T13:26:17.830Z,47.36
2022-10-01T13:28:50.932Z,47.44
2022-10-01T13:31:24.174Z,47.49
2022-10-01T13:33:57.121Z,47.50
2022-10-01T13:36:33.385Z,47.45
2022-10-01T13:39:06.142Z,47.43
2022-10-01T13:41:39.036Z,47.37
2022-10-01T13:44:12.168Z,47.36
2022-10-01T13:46:45.228Z,47.38
2022-10-01T13:49:18.144Z,47.36
2022-10-01T13:51:51.189Z,47.36
2022-10-01T13:54:24.179Z,47.31
2022-10-01T13:56:57.179Z,47.31
2022-10-01T13:59:33.065Z,47.23
2022-10-01T14:02:06.334Z,47.19
2022-10-01T14:04:39.211Z,47.16
2022-10-01T14:07:12.192Z,47.18
2022-10-01T14:09:45.125Z,47.21
2022-10-01T14:12:18.199Z,47.24
2022-10-01T14:14:51.151Z,47.27
2022-10-01T14:17:24.215Z,47.27
2022-10-01T14:19:57.200Z,47.29
2022-10-01T14:22:30.272Z,47.29
2022-10-01T14:25:03.045Z,47.31
2022-10-01T14:27:36.128Z,47.32
2022-10-01T14:30:08.918Z,47.34
2022-10-01T14:32:42.205Z,47.33
2022-10-01T14:35:15.154Z,47.35
2022-10-01T14:37:48.516Z,47.37
2022-10-01T14:40:22.227Z,47.38
2022-10-01T14:42:55.283Z,47.39
2022-10-01T14:45:28.322Z,47.41
2022-10-01T14:48:01.075Z,47.43
2022-10-01T14:50:34.233Z,47.44
2022-10-01T14:53:08.390Z,47.47
2022-10-01T14:55:41.299Z,47.49
2022-10-01T14:58:14.271Z,47.49
2022-10-01T15:01:01.319Z,47.53
2022-10-01T15:03:34.123Z,47.55
2022-10-01T15:06:11.086Z,47.55
2022-10-01T15:08:44.370Z,47.56
2022-10-01T15:11:17.270Z,47.57
2022-10-01T15:13:50.276Z,47.59
2022-10-01T15:16:23.398Z,47.59
2022-10-01T15:18:56.314Z,47.61
2022-10-01T15:21:29.243Z,47.63
2022-10-01T15:24:02.287Z,47.64
2022-10-01T15:26:35.469Z,47.63
2022-10-01T15:29:08.127Z,47.64
2022-10-01T15:31:41.411Z,47.66
2022-10-01T15:34:14.341Z,47.63
2022-10-01T15:39:37.367Z,47.68
2022-10-01T15:42:10.329Z,47.68
2022-10-01T15:44:43.289Z,47.69
2022-10-01T15:47:16.318Z,47.63
2022-10-01T15:49:49.336Z,47.69
2022-10-01T15:52:22.313Z,47.63
2022-10-01T15:54:55.370Z,47.64
2022-10-01T15:57:28.028Z,47.58
2022-10-01T16:00:01.133Z,47.66
2022-10-01T16:02:34.079Z,47.70
2022-10-01T16:05:07.163Z,47.73
2022-10-01T16:07:40.143Z,47.81
2022-10-01T16:10:13.103Z,47.83
2022-10-01T16:12:46.278Z,47.87
2022-10-01T16:15:19.198Z,47.88
2022-10-01T16:17:52.078Z,47.85
2022-10-01T16:20:25.119Z,47.84
2022-10-01T16:22:58.098Z,47.87
2022-10-01T16:25:31.306Z,47.92
2022-10-01T16:28:04.300Z,47.89
2022-10-01T16:30:37.126Z,47.88
2022-10-01T16:33:10.189Z,47.88
2022-10-01T16:35:43.206Z,47.86
2022-10-01T16:38:16.132Z,47.90
2022-10-01T16:40:49.201Z,47.82
2022-10-01T16:43:22.269Z,47.83
2022-10-01T16:45:55.289Z,47.85
2022-10-01T16:48:28.150Z,47.89
2022-10-01T16:51:01.458Z,47.89
2022-10-01T16:53:34.437Z,47.94
2022-10-01T16:56:07.517Z,47.99
2022-10-01T16:58:40.454Z,48.01
2022-10-01T17:01:13.238Z,48.04
2022-10-01T17:04:00.465Z,48.01
2022-10-01T17:06:36.573Z,48.01
2022-10-01T17:09:23.423Z,47.99
2022-10-01T17:11:56.367Z,48.00
2022-10-01T17:14:29.192Z,48.05
2022-10-01T17:17:02.169Z,47.99
2022-10-01T17:19:35.496Z,48.00
2022-10-01T17:22:09.181Z,48.00
2022-10-01T17:24:42.682Z,48.05
2022-10-01T17:27:16.191Z,48.07
2022-10-01T17:29:49.195Z,48.06
2022-10-01T17:32:22.507Z,48.07
2022-10-01T17:34:55.327Z,48.07
2022-10-01T17:37:28.190Z,48.12
2022-10-01T17:40:01.201Z,48.14
2022-10-01T17:42:34.207Z,48.12
2022-10-01T17:45:07.352Z,48.09
2022-10-01T17:47:40.528Z,48.11
2022-10-01T17:50:13.272Z,48.08
2022-10-01T17:52:46.327Z,48.09
2022-10-01T17:55:19.254Z,48.07
2022-10-01T17:57:52.246Z,48.02
2022-10-01T18:00:25.221Z,48.00
2022-10-01T18:02:58.484Z,48.08
2022-10-01T18:05:31.249Z,48.06
2022-10-01T18:08:04.308Z,48.04
2022-10-01T18:10:37.386Z,48.03
2022-10-01T18:13:10.573Z,48.01
2022-10-01T18:15:43.299Z,48.08
2022-10-01T18:19:45.800Z,48.06
2022-10-01T18:20:49.292Z,48.07
2022-10-01T18:23:22.299Z,48.03
2022-10-01T18:25:55.482Z,48.06
2022-10-01T18:28:28.372Z,48.08
2022-10-01T18:31:01.403Z,48.03
2022-10-01T18:33:34.594Z,48.02
2022-10-01T18:36:07.440Z,47.98
2022-10-01T18:38:40.423Z,48.07
2022-10-01T18:41:13.270Z,48.06
2022-10-01T18:46:36.929Z,48.03
2022-10-01T18:49:09.296Z,48.01
2022-10-01T18:51:42.374Z,48.02
2022-10-01T18:54:15.324Z,47.98
2022-10-01T18:56:48.487Z,48.07
2022-10-01T18:59:21.415Z,47.98
2022-10-01T19:01:54.737Z,48.03
2022-10-01T19:04:27.376Z,48.05
2022-10-01T19:07:00.595Z,48.07
2022-10-01T19:09:33.491Z,48.08
2022-10-01T19:12:06.467Z,47.97
2022-10-01T19:14:39.388Z,47.99
2022-10-01T19:17:12.392Z,48.00
2022-10-01T19:19:59.476Z,48.14
2022-10-01T19:22:32.472Z,48.08
2022-10-01T19:25:05.399Z,48.12
2022-10-01T19:27:38.508Z,48.07
2022-10-01T19:30:11.352Z,48.05
2022-10-01T19:32:44.482Z,48.09
2022-10-01T19:35:17.409Z,48.09
2022-10-01T19:37:50.396Z,48.09
2022-10-01T19:40:23.733Z,48.11
2022-10-01T19:42:56.647Z,48.10
2022-10-01T19:45:29.640Z,48.06
2022-10-01T19:48:02.690Z,48.04
2022-10-01T19:50:35.455Z,48.11
2022-10-01T19:53:08.563Z,48.01
2022-10-01T19:55:41.721Z,47.98
2022-10-01T19:58:14.632Z,47.91
2022-10-01T20:00:47.634Z,47.89
2022-10-01T20:03:20.591Z,47.87
2022-10-01T20:05:53.569Z,47.85
2022-10-01T20:08:26.469Z,47.85
2022-10-01T20:10:59.428Z,47.87
2022-10-01T20:13:32.510Z,47.91
2022-10-01T20:16:05.749Z,47.91
2022-10-01T20:18:38.592Z,47.94
2022-10-01T20:21:11.715Z,47.95
2022-10-01T20:23:44.471Z,47.98
2022-10-01T20:26:17.479Z,47.96
2022-10-01T20:28:50.446Z,48.10
2022-10-01T20:31:23.518Z,48.06
2022-10-01T20:33:56.549Z,48.02
2022-10-01T20:36:34.039Z,48.02
2022-10-01T20:39:02.575Z,47.94
2022-10-01T20:41:39.345Z,47.97
2022-10-01T20:44:08.735Z,48.06
2022-10-01T20:46:41.857Z,48.03
2022-10-01T20:49:14.786Z,48.05
2022-10-01T20:51:47.494Z,48.03
2022-10-01T20:54:20.514Z,48.00
2022-10-01T20:56:53.505Z,48.09
2022-10-01T20:59:26.793Z,48.08
2022-10-01T21:01:59.741Z,48.09
2022-10-01T21:04:32.625Z,48.09
2022-10-01T21:07:05.649Z,48.08
2022-10-01T21:09:38.625Z,48.10
2022-10-01T21:12:11.568Z,48.12
2022-10-01T21:14:44.909Z,48.09
2022-10-01T21:17:17.638Z,48.11
2022-10-01T21:19:50.534Z,48.11
2022-10-01T21:22:23.670Z,48.14
2022-10-01T21:27:48.011Z,47.83
2022-10-01T21:30:19.671Z,47.56
2022-10-01T21:32:52.648Z,47.89
2022-10-01T21:35:25.721Z,48.01
2022-10-01T21:37:58.678Z,48.03
2022-10-01T21:40:31.709Z,48.11
2022-10-01T21:43:04.703Z,48.15
2022-10-01T21:45:37.706Z,48.11
2022-10-01T21:48:10.583Z,48.17
2022-10-01T21:50:43.751Z,48.19
2022-10-01T21:53:16.560Z,48.21
2022-10-01T21:55:49.725Z,48.20
2022-10-01T21:58:22.616Z,48.24
2022-10-01T22:00:55.669Z,48.26
2022-10-01T22:03:28.689Z,48.30
2022-10-01T22:06:01.951Z,48.42
2022-10-01T22:08:34.687Z,48.47
2022-10-01T22:11:07.621Z,48.63
2022-10-01T22:13:40.892Z,48.57
2022-10-01T22:16:13.980Z,48.68
2022-10-01T22:18:46.588Z,48.71
2022-10-01T22:21:19.967Z,48.71
2022-10-01T22:23:52.724Z,49.00
2022-10-01T22:26:25.903Z,49.00
2022-10-01T22:28:58.948Z,48.96
2022-10-01T22:31:32.086Z,49.01
2022-10-01T22:34:04.972Z,48.98
2022-10-01T22:36:38.285Z,49.02
2022-10-01T22:39:10.899Z,49.09
2022-10-01T22:41:43.932Z,48.98
2022-10-01T22:44:17.013Z,49.06
2022-10-01T22:46:50.032Z,49.10
2022-10-01T22:49:23.003Z,49.04
2022-10-01T22:51:56.098Z,49.08
2022-10-01T22:54:28.995Z,49.08
2022-10-01T22:57:02.002Z,49.21
2022-10-01T22:59:34.968Z,49.28
2022-10-01T23:02:07.973Z,49.29
2022-10-01T23:04:40.958Z,49.22
2022-10-01T23:07:14.068Z,49.32
2022-10-01T23:09:47.021Z,49.37
2022-10-01T23:12:19.949Z,49.38
2022-10-01T23:14:53.040Z,49.60
2022-10-01T23:17:26.066Z,49.59
2022-10-01T23:19:59.081Z,49.58
2022-10-01T23:22:32.111Z,49.73
2022-10-01T23:25:05.057Z,49.68
2022-10-01T23:27:40.919Z,49.74
2022-10-01T23:30:14.035Z,49.65
2022-10-01T23:32:47.040Z,49.87
2022-10-01T23:35:20.098Z,49.84
2022-10-01T23:37:53.004Z,49.89
2022-10-01T23:40:26.061Z,49.89
2022-10-01T23:42:59.069Z,49.80
2022-10-01T23:45:32.104Z,49.80
2022-10-01T23:48:05.040Z,49.83
2022-10-01T23:50:37.849Z,49.87
2022-10-01T23:53:11.017Z,49.88
2022-10-01T23:55:44.059Z,49.96
2022-10-01T23:58:17.095Z,49.99
